Time;durP1;ratioP1;P1;durP2;ratioP2;P2;SDS_P1;SDS_P2;PMS_P1;PMS_P2;Temp;Humidity;BMP_temperature;BMP_pressure;BME280_temperature;BME280_humidity;BME280_pressure;Samples;Min_cycle;Max_cycle;Signal;HPM_P1;HPM_P2
2021/01/29 00:01:00;;;;;;;0.20;0.20;;;;;;;-1.05;100.00;98829.84;1808565;78;21122;-47
2021/01/29 00:03:28;;;;;;;0.00;0.00;;;;;;;-1.09;100.00;98835.39;1803663;78;22313;-47
2021/01/29 00:05:58;;;;;;;0.10;0.10;;;;;;;-1.13;100.00;98830.25;1817803;78;21174;-47
2021/01/29 00:08:26;;;;;;;0.05;0.05;;;;;;;-1.20;100.00;98829.59;1815020;78;21149;-46
2021/01/29 00:10:54;;;;;;;0.10;0.10;;;;;;;-1.25;100.00;98837.55;1818079;78;21122;-47
2021/01/29 00:13:22;;;;;;;0.10;0.10;;;;;;;-1.33;100.00;98842.23;1800960;78;21094;-46
2021/01/29 00:15:50;;;;;;;0.10;0.10;;;;;;;-1.41;100.00;98843.14;1786394;78;21142;-47
2021/01/29 00:18:18;;;;;;;0.00;0.00;;;;;;;-1.49;100.00;98844.88;1788568;78;21139;-49
2021/01/29 00:20:45;;;;;;;0.10;0.10;;;;;;;-1.61;100.00;98844.92;1785938;80;21573;-48
2021/01/29 00:23:14;;;;;;;0.25;0.25;;;;;;;-1.69;100.00;98851.47;1786800;78;21430;-47
2021/01/29 00:25:48;;;;;;;0.08;0.08;;;;;;;-1.79;100.00;98840.56;1788271;78;21126;-46
2021/01/29 00:28:16;;;;;;;0.05;0.05;;;;;;;-1.85;100.00;98853.05;1802559;78;21651;-48
2021/01/29 00:30:44;;;;;;;0.70;0.40;;;;;;;-1.93;100.00;98861.42;1790053;78;21161;-48
2021/01/29 00:33:13;;;;;;;0.00;0.00;;;;;;;-1.99;100.00;98862.39;1812472;78;21038;-47
2021/01/29 00:35:41;;;;;;;0.20;0.20;;;;;;;-2.04;100.00;98866.30;1823583;78;21114;-48
2021/01/29 00:38:09;;;;;;;0.10;0.10;;;;;;;-2.09;100.00;98855.48;1810297;78;21536;-47
2021/01/29 00:40:37;;;;;;;0.00;0.00;;;;;;;-2.12;100.00;98871.49;1824953;78;22014;-46
2021/01/29 00:43:05;;;;;;;0.00;0.00;;;;;;;-2.17;100.00;98868.18;1827107;78;21555;-47
2021/01/29 00:45:35;;;;;;;0.05;0.05;;;;;;;-2.20;100.00;98873.17;1799152;78;21157;-47
2021/01/29 00:48:03;;;;;;;0.10;0.10;;;;;;;-2.24;100.00;98874.70;1805879;78;21430;-46
2021/01/29 00:50:31;;;;;;;0.72;0.72;;;;;;;-2.27;100.00;98870.64;1827094;78;21114;-46
2021/01/29 00:52:59;;;;;;;0.10;0.10;;;;;;;-2.29;100.00;98876.74;1796656;78;21538;-47
2021/01/29 00:55:27;;;;;;;0.00;0.00;;;;;;;-2.31;100.00;98876.16;1818402;78;21153;-48
2021/01/29 00:57:56;;;;;;;0.10;0.10;;;;;;;-2.34;100.00;98875.83;1803201;78;21102;-47
2021/01/29 01:00:39;;;;;;;;;;;;;;;-2.37;100.00;98879.78;1827394;78;21146;-47
2021/01/29 01:03:07;;;;;;;0.05;0.05;;;;;;;-2.39;100.00;98880.53;1796489;78;20246;-47
2021/01/29 01:05:34;;;;;;;0.10;0.10;;;;;;;-2.42;100.00;98887.70;1824439;78;21114;-47
2021/01/29 01:08:02;;;;;;;0.33;0.17;;;;;;;-2.45;100.00;98881.45;1799367;78;21169;-47
2021/01/29 01:10:47;;;;;;;0.00;0.00;;;;;;;-2.46;100.00;98884.66;1803578;78;21583;-45
2021/01/29 01:13:34;;;;;;;0.00;0.00;;;;;;;-2.52;100.00;98882.09;1811296;78;21101;-47
2021/01/29 01:16:28;;;;;;;0.03;0.03;;;;;;;-2.52;100.00;98882.09;1847855;76;29593;-47
2021/01/29 01:18:56;;;;;;;0.00;0.00;;;;;;;-2.60;100.00;98886.77;1782779;78;21141;-47
2021/01/29 01:21:26;;;;;;;0.10;0.10;;;;;;;-2.62;100.00;98891.52;1781357;80;21173;-46
2021/01/29 01:23:55;;;;;;;0.10;0.10;;;;;;;-2.66;100.00;98887.67;1753847;80;21138;-48
2021/01/29 01:26:23;;;;;;;0.10;0.10;;;;;;;-2.67;100.00;98893.23;1725614;81;21157;-47
2021/01/29 01:29:09;;;;;;;0.03;0.03;;;;;;;-2.69;100.00;98898.84;1779916;78;21141;-46
2021/01/29 01:31:37;;;;;;;0.00;0.00;;;;;;;-2.71;100.00;98899.59;1785861;80;21599;-47
2021/01/29 01:34:06;;;;;;;0.40;0.40;;;;;;;-2.72;100.00;98906.48;1780092;78;21114;-46
2021/01/29 01:36:57;;;;;;;0.10;0.10;;;;;;;-2.71;100.00;98900.92;1905894;74;29090;-49
2021/01/29 01:39:26;;;;;;;0.10;0.10;;;;;;;-2.75;100.00;98913.11;1788521;78;21114;-46
2021/01/29 01:41:55;;;;;;;0.10;0.10;;;;;;;-2.78;100.00;98901.55;1774192;80;21597;-47
2021/01/29 01:44:38;;;;;;;0.30;0.25;;;;;;;-2.78;100.00;98910.91;1758172;80;21142;-48
2021/01/29 01:47:25;;;;;;;0.00;0.00;;;;;;;-2.78;100.00;98906.89;1794883;78;21126;-47
2021/01/29 01:49:59;;;;;;;0.10;0.10;;;;;;;-2.81;100.00;98907.36;1816283;78;21127;-47
2021/01/29 01:52:34;;;;;;;0.10;0.10;;;;;;;-2.82;100.00;98903.05;1815129;78;21130;-46
2021/01/29 01:55:24;;;;;;;0.10;0.10;;;;;;;-2.83;100.00;98904.91;1819804;78;21190;-46
2021/01/29 01:58:06;;;;;;;0.10;0.10;;;;;;;-2.83;100.00;98912.13;1766902;78;21000;-46
2021/01/29 02:00:37;;;;;;;;;;;;;;;-2.84;100.00;98904.63;1813063;78;21126;-48
2021/01/29 02:03:19;;;;;;;0.10;0.10;;;;;;;-2.86;100.00;98902.70;1783333;78;20246;-46
2021/01/29 02:06:05;;;;;;;0.00;0.00;;;;;;;-2.85;100.00;98900.84;1820504;78;21151;-46
2021/01/29 02:08:56;;;;;;;0.10;0.10;;;;;;;-2.80;100.00;98898.28;1822962;76;29535;-46
2021/01/29 02:11:29;;;;;;;3.20;1.65;;;;;;;-2.85;100.00;98906.19;1776911;80;21087;-45
2021/01/29 02:13:58;;;;;;;0.10;0.10;;;;;;;-2.85;100.00;98909.66;1723388;81;21587;-47
2021/01/29 02:17:01;;;;;;;0.00;0.00;;;;;;;-2.83;100.00;98908.11;1847951;76;27690;-46
2021/01/29 02:20:24;;;;;;;0.00;0.00;;;;;;;-2.84;100.00;98909.16;1786866;78;21208;-47
2021/01/29 02:23:36;;;;;;;0.15;0.15;;;;;;;-2.84;100.00;98909.16;1816123;78;21564;-46
2021/01/29 02:26:57;;;;;;;0.10;0.10;;;;;;;-2.83;100.00;98910.78;1847895;76;27367;-46
2021/01/29 02:29:54;;;;;;;0.05;0.05;;;;;;;-2.88;100.00;98909.32;1784921;78;21130;-46
2021/01/29 02:32:55;;;;;;;0.00;0.00;;;;;;;-2.89;100.00;98917.06;1818431;78;21118;-46
2021/01/29 02:36:02;;;;;;;0.15;0.15;;;;;;;-2.88;100.00;98913.33;1763555;78;21138;-46
2021/01/29 02:38:50;;;;;;;0.00;0.00;;;;;;;-2.87;100.00;98917.13;1758237;80;21157;-48
2021/01/29 02:41:38;;;;;;;0.20;0.20;;;;;;;-2.85;100.00;98916.88;1714270;80;21167;-46
2021/01/29 02:44:37;;;;;;;0.00;0.00;;;;;;;-2.85;100.00;98920.89;1787657;78;21208;-46
2021/01/29 02:47:29;;;;;;;0.70;0.70;;;;;;;-2.80;100.00;98929.03;1857248;76;27537;-46
2021/01/29 02:50:48;;;;;;;0.10;0.10;;;;;;;-2.83;100.00;98926.83;1822401;78;21111;-46
2021/01/29 02:53:52;;;;;;;0.10;0.10;;;;;;;-2.85;100.00;98921.70;1821211;78;21123;-46
2021/01/29 02:56:35;;;;;;;0.10;0.10;;;;;;;-2.83;100.00;98926.83;1889519;74;29055;-47
2021/01/29 02:59:39;;;;;;;0.00;0.00;;;;;;;-2.89;100.00;98931.77;1837861;75;21142;-47
2021/01/29 03:02:32;;;;;;;0.20;0.20;;;;;;;-2.89;100.00;98935.25;1858360;74;28893;-47
2021/01/29 03:05:13;;;;;;;;;;;;;;;-2.96;100.00;98937.20;1814643;78;21564;-46
2021/01/29 03:08:04;;;;;;;0.00;0.00;;;;;;;-2.96;100.00;98936.39;1821062;78;20240;-46
2021/01/29 03:11:16;;;;;;;0.10;0.10;;;;;;;-2.96;100.00;98941.73;1808142;76;29093;-47
2021/01/29 03:14:22;;;;;;;0.10;0.10;;;;;;;-2.95;100.00;98934.80;1868235;76;28689;-46
2021/01/29 03:17:22;;;;;;;0.10;0.10;;;;;;;-3.03;100.00;98943.97;1821201;78;21086;-46
2021/01/29 03:20:13;;;;;;;1.60;1.32;;;;;;;-3.05;100.00;98938.03;1821033;77;21127;-46
2021/01/29 03:23:14;;;;;;;1.75;0.57;;;;;;;-3.06;100.00;98951.64;1820966;78;24398;-45
2021/01/29 03:26:06;;;;;;;0.15;0.15;;;;;;;-3.10;100.00;98948.59;1824797;77;21532;-45
2021/01/29 03:28:59;;;;;;;0.00;0.00;;;;;;;-3.10;100.00;98951.78;1841744;77;21114;-46
2021/01/29 03:31:46;;;;;;;0.00;0.00;;;;;;;-3.13;100.00;98956.26;1785232;80;21170;-46
2021/01/29 03:35:02;;;;;;;0.10;0.10;;;;;;;-3.17;100.00;98958.55;1759356;80;21543;-46
2021/01/29 03:38:14;;;;;;;0.10;0.10;;;;;;;-3.20;100.00;98956.34;1785004;80;21138;-47
2021/01/29 03:41:14;;;;;;;0.00;0.00;;;;;;;-3.22;100.00;98962.42;1786709;80;21498;-46
2021/01/29 03:44:14;;;;;;;0.00;0.00;;;;;;;-3.24;100.00;98957.81;1787505;80;21210;-46
2021/01/29 03:47:04;;;;;;;0.55;0.40;;;;;;;-3.21;100.00;98962.73;1847636;76;28128;-49
2021/01/29 03:50:07;;;;;;;0.28;0.28;;;;;;;-3.26;100.00;98966.61;1802098;78;21138;-49
2021/01/29 03:53:08;;;;;;;;;;;;;;;-3.28;100.00;98972.69;1767540;80;21154;-50
2021/01/29 03:56:17;;;;;;;0.00;0.00;;;;;;;-3.31;100.00;98963.80;1733969;82;20255;-48
2021/01/29 03:59:22;;;;;;;0.10;0.10;;;;;;;-3.34;100.00;98978.91;1762076;78;21165;-48
2021/01/29 04:02:29;;;;;;;0.10;0.10;;;;;;;-3.37;100.00;98964.68;1785825;80;21153;-48
2021/01/29 04:05:24;;;;;;;0.33;0.30;;;;;;;-3.41;100.00;98976.84;1782462;78;21418;-47
2021/01/29 04:08:17;;;;;;;0.10;0.10;;;;;;;-3.44;100.00;98979.97;1785693;80;21141;-46
2021/01/29 04:10:57;;;;;;;0.28;0.28;;;;;;;-3.44;100.00;98974.63;1816394;76;28983;-46
2021/01/29 04:13:47;;;;;;;0.10;0.10;;;;;;;-3.52;100.00;98983.23;1785442;78;21532;-46
2021/01/29 04:16:27;;;;;;;0.20;0.20;;;;;;;-3.55;100.00;98979.69;1730110;80;21145;-45
2021/01/29 04:18:54;;;;;;;0.05;0.05;;;;;;;-3.59;100.00;98979.83;1785982;78;21162;-46
2021/01/29 04:21:38;;;;;;;0.00;0.00;;;;;;;-3.59;100.00;98983.83;1743804;81;21138;-46
2021/01/29 04:24:21;;;;;;;0.15;0.15;;;;;;;-3.59;100.00;98979.83;1783542;78;21154;-46
2021/01/29 04:26:59;;;;;;;1.32;0.90;;;;;;;-3.60;100.00;98982.21;1786295;80;21098;-47
2021/01/29 04:29:34;;;;;;;0.00;0.00;;;;;;;-3.59;100.00;98986.50;1786084;78;21125;-46
2021/01/29 04:32:05;;;;;;;0.10;0.10;;;;;;;-3.59;100.00;98987.02;1771270;80;21154;-45
2021/01/29 04:34:38;;;;;;;0.10;0.10;;;;;;;-3.58;100.00;98983.34;1769029;80;21572;-46
2021/01/29 04:37:11;;;;;;;0.00;0.00;;;;;;;-3.58;100.00;98985.48;1754909;81;21122;-46
2021/01/29 04:39:42;;;;;;;0.08;0.08;;;;;;;-3.57;100.00;98981.76;1785082;78;21201;-48
2021/01/29 04:42:55;;;;;;;0.10;0.10;;;;;;;-3.57;100.00;98987.09;1785902;80;21146;-45
2021/01/29 04:46:16;;;;;;;1.98;0.40;;;;;;;-3.55;100.00;98997.05;1755044;80;21158;-45
2021/01/29 04:49:01;;;;;;;4.40;2.47;;;;;;;-3.56;100.00;98986.08;1704888;83;21642;-45
2021/01/29 04:52:05;;;;;;;1.47;1.37;;;;;;;-3.56;100.00;98986.08;1763392;80;21646;-45
2021/01/29 04:55:02;;;;;;;1.07;1.00;;;;;;;-3.56;100.00;98979.40;1760759;80;27360;-45
2021/01/29 04:58:06;;;;;;;4.35;3.80;;;;;;;-3.54;100.00;98985.83;1684149;84;21210;-46
2021/01/29 05:01:39;;;;;;;0.10;0.10;;;;;;;-3.55;100.00;98978.88;1843914;76;27755;-46
2021/01/29 05:04:41;;;;;;;0.05;0.05;;;;;;;-3.62;100.00;98985.62;1709671;83;21124;-46
2021/01/29 05:08:20;;;;;;;0.35;0.35;;;;;;;-3.60;100.00;98968.86;1840943;76;27236;-45
2021/01/29 05:11:46;;;;;;;0.00;0.00;;;;;;;-3.65;100.00;98972.72;1755257;81;21445;-48
2021/01/29 05:14:59;;;;;;;0.17;0.17;;;;;;;-3.65;100.00;98979.92;1779252;80;21126;-49
2021/01/29 05:18:14;;;;;;;0.05;0.05;;;;;;;-3.66;100.00;98971.07;1767373;80;21177;-48
2021/01/29 05:20:55;;;;;;;0.00;0.00;;;;;;;-3.67;100.00;98984.14;1786242;80;21126;-48
2021/01/29 05:23:58;;;;;;;0.00;0.00;;;;;;;-3.67;100.00;98989.47;1770926;80;21162;-49
2021/01/29 05:27:08;;;;;;;0.10;0.10;;;;;;;-3.67;100.00;98970.79;1754942;81;21111;-49
2021/01/29 05:29:50;;;;;;;0.98;0.98;;;;;;;-3.65;99.87;98992.74;1759389;80;21417;-48
2021/01/29 05:32:32;;;;;;;0.00;0.00;;;;;;;-3.67;99.84;98999.62;1757461;78;21173;-48
2021/01/29 05:35:41;;;;;;;0.07;0.07;;;;;;;-3.64;99.77;98999.70;1866996;74;28069;-46
2021/01/29 05:38:50;;;;;;;0.00;0.00;;;;;;;-3.72;99.42;99009.35;1825132;78;21094;-46
2021/01/29 05:41:44;;;;;;;0.62;0.62;;;;;;;-3.82;98.95;99017.06;1825123;78;21546;-45
2021/01/29 05:44:36;;;;;;;1.07;0.33;;;;;;;-3.91;98.75;99029.36;1830967;77;21529;-45
2021/01/29 05:47:11;;;;;;;;;;;;;;;-3.97;98.47;99024.08;1795261;79;21287;-46
2021/01/29 05:50:12;;;;;;;0.37;0.37;;;;;;;-4.04;98.34;99028.66;1787275;80;20304;-46
2021/01/29 05:53:09;;;;;;;0.70;0.70;;;;;;;-4.11;98.34;99022.03;1790250;79;21114;-46
2021/01/29 05:55:51;;;;;;;1.98;0.68;;;;;;;-4.17;98.25;99038.93;1758559;80;21172;-46
2021/01/29 05:58:42;;;;;;;0.05;0.05;;;;;;;-4.21;98.22;99043.05;1713962;81;21012;-46
2021/01/29 06:01:56;;;;;;;0.70;0.65;;;;;;;-4.23;98.04;99035.26;1850798;76;27321;-46
2021/01/29 06:04:40;;;;;;;0.00;0.00;;;;;;;-4.28;98.03;99038.29;1792793;78;21170;-46
2021/01/29 06:12:49;;;;;;;1.15;1.10;;;;;;;-4.25;97.78;99052.52;1788071;79;27856;-51
2021/01/29 06:15:39;;;;;;;0.10;0.10;;;;;;;-4.25;97.64;99059.19;1732406;82;21158;-51
2021/01/29 06:18:36;;;;;;;1.95;0.45;;;;;;;-4.20;97.57;99060.19;1743295;82;21146;-51
2021/01/29 06:21:26;;;;;;;0.10;0.10;;;;;;;-4.16;97.60;99061.38;1741981;82;21154;-51
2021/01/29 06:24:11;;;;;;;0.10;0.10;;;;;;;-4.12;97.51;99065.77;1742633;82;21418;-51
2021/01/29 06:27:00;;;;;;;0.10;0.10;;;;;;;-4.12;97.33;99073.25;1743333;82;21165;-51
2021/01/29 06:29:48;;;;;;;0.10;0.10;;;;;;;-4.10;97.21;99073.05;1742962;82;21167;-51
2021/01/29 06:32:55;;;;;;;0.85;0.35;;;;;;;-4.08;97.18;99068.28;1700743;84;21202;-53
2021/01/29 06:35:56;;;;;;;0.10;0.10;;;;;;;-4.07;96.75;99079.27;1690299;84;21210;-52
2021/01/29 06:38:49;;;;;;;0.37;0.37;;;;;;;-4.04;96.59;99066.82;1690475;84;21129;-53
2021/01/29 06:41:36;;;;;;;0.10;0.10;;;;;;;-4.04;96.39;99061.48;1690099;84;21174;-53
2021/01/29 06:45:00;;;;;;;0.10;0.10;;;;;;;-4.10;96.07;99047.70;1688973;84;21140;-53
2021/01/29 06:48:19;;;;;;;0.10;0.10;;;;;;;-4.14;95.97;99055.83;1690339;84;21159;-53
2021/01/29 06:51:16;;;;;;;0.00;0.00;;;;;;;-4.11;96.04;99050.86;1682625;84;21140;-53
2021/01/29 06:54:22;;;;;;;0.25;0.25;;;;;;;-3.97;96.13;99060.91;1677810;85;21519;-53
2021/01/29 06:57:09;;;;;;;0.00;0.00;;;;;;;-3.73;96.35;99041.10;1678015;85;21182;-52
2021/01/29 07:00:10;;;;;;;0.47;0.47;;;;;;;-3.43;96.32;99040.37;1668386;85;21144;-53
2021/01/29 07:03:11;;;;;;;0.40;0.40;;;;;;;-3.20;95.68;99054.39;1640761;85;21142;-53
2021/01/29 07:06:22;;;;;;;0.00;0.00;;;;;;;-2.98;95.39;99047.53;1690374;84;21206;-53
2021/01/29 07:09:10;;;;;;;0.00;0.00;;;;;;;-2.78;94.56;99053.95;1690459;84;21194;-53
2021/01/29 07:12:16;;;;;;;0.05;0.05;;;;;;;-2.68;93.75;99039.51;1690264;83;21148;-53
2021/01/29 07:15:38;;;;;;;0.10;0.10;;;;;;;-2.66;93.40;99041.97;1690315;84;21120;-53
2021/01/29 07:18:29;;;;;;;1.45;0.40;;;;;;;-2.69;92.81;99037.08;1690718;84;21151;-53
2021/01/29 07:21:20;;;;;;;0.20;0.20;;;;;;;-2.73;92.56;99032.69;1691679;84;21167;-53
2021/01/29 07:24:17;;;;;;;0.10;0.10;;;;;;;-2.74;92.27;99032.94;1689815;84;21223;-53
2021/01/29 07:27:19;;;;;;;0.20;0.20;;;;;;;-2.78;91.67;99024.53;1690764;84;21134;-53
2021/01/29 07:30:10;;;;;;;0.40;0.40;;;;;;;-2.79;91.36;99042.13;1690162;84;21458;-53
2021/01/29 07:32:57;;;;;;;0.00;0.00;;;;;;;-2.79;91.21;99038.13;1689824;84;21211;-53
2021/01/29 07:35:39;;;;;;;0.10;0.10;;;;;;;-2.78;91.05;99026.41;1689645;84;21450;-53
2021/01/29 07:38:39;;;;;;;0.00;0.00;;;;;;;-2.76;91.10;99023.80;1689031;84;21155;-53
2021/01/29 07:41:32;;;;;;;0.10;0.10;;;;;;;-2.70;91.03;99029.55;1661994;86;21171;-53
2021/01/29 07:44:15;;;;;;;3.75;0.75;;;;;;;-2.68;90.71;99023.98;1662131;86;21324;-53
2021/01/29 07:47:20;;;;;;;0.30;0.30;;;;;;;-2.69;90.36;99025.86;1662017;85;21487;-53
2021/01/29 07:50:26;;;;;;;1.15;0.42;;;;;;;-2.70;90.04;99020.20;1659105;85;21199;-47
2021/01/29 07:53:22;;;;;;;0.10;0.10;;;;;;;-2.70;89.96;99030.89;1662083;85;21637;-53
2021/01/29 07:55:58;;;;;;;0.10;0.10;;;;;;;-2.70;89.19;99020.20;1661819;86;21479;-53
2021/01/29 07:59:01;;;;;;;0.05;0.05;;;;;;;-2.72;89.17;99020.13;1661995;86;21160;-47
2021/01/29 08:01:43;;;;;;;;;;;;;;;-2.75;89.32;99020.59;1664303;86;21633;-53
2021/01/29 08:04:15;;;;;;;;;;;;;;;-2.78;88.92;99012.51;1664388;85;20270;-53
2021/01/29 08:07:03;;;;;;;0.10;0.10;;;;;;;-2.83;89.08;99022.55;1662035;85;20294;-53
2021/01/29 08:09:36;;;;;;;0.80;0.25;;;;;;;-2.86;88.81;99011.50;1663453;84;21613;-49
2021/01/29 08:12:08;;;;;;;0.03;0.03;;;;;;;-2.87;88.80;99014.70;1688091;84;21194;-47
2021/01/29 08:15:02;;;;;;;0.10;0.10;;;;;;;-2.86;88.92;99014.98;1705042;84;21173;-48
2021/01/29 08:17:53;;;;;;;0.05;0.05;;;;;;;-2.83;88.96;99002.48;1704980;84;21172;-48
2021/01/29 08:21:06;;;;;;;0.30;0.30;;;;;;;-2.79;88.76;99006.03;1704228;84;21575;-47
2021/01/29 08:23:44;;;;;;;0.40;0.40;;;;;;;-2.78;88.86;98999.14;1705374;84;21143;-53
2021/01/29 08:26:29;;;;;;;0.10;0.10;;;;;;;-2.72;88.86;99005.42;1704989;83;21193;-53
2021/01/29 08:29:23;;;;;;;0.08;0.08;;;;;;;-2.70;88.72;99014.84;1696713;84;21613;-53
2021/01/29 08:32:35;;;;;;;0.23;0.23;;;;;;;-2.67;88.58;99014.41;1701926;84;21598;-53
2021/01/29 08:35:21;;;;;;;0.20;0.20;;;;;;;-2.60;88.45;99020.48;1704511;83;21190;-53
2021/01/29 08:38:09;;;;;;;0.00;0.00;;;;;;;-2.53;88.19;99014.20;1705003;84;21206;-53
2021/01/29 08:41:03;;;;;;;0.33;0.33;;;;;;;-2.43;88.58;99014.45;1682751;84;21131;-53
2021/01/29 08:43:57;;;;;;;0.10;0.10;;;;;;;-2.29;88.28;99003.03;1689304;84;21316;-53
2021/01/29 08:46:42;;;;;;;3.95;0.98;;;;;;;-2.21;88.01;98997.33;1677449;84;21238;-53
2021/01/29 08:49:19;;;;;;;1.00;0.95;;;;;;;-2.13;88.19;98997.51;1689795;84;21447;-53
2021/01/29 08:52:14;;;;;;;0.23;0.20;;;;;;;-2.05;87.94;98983.77;1689750;84;21169;-49
2021/01/29 08:55:12;;;;;;;0.00;0.00;;;;;;;-1.98;87.70;98976.44;1703159;84;21141;-52
2021/01/29 08:58:00;;;;;;;0.47;0.35;;;;;;;-1.92;87.73;98986.23;1752258;81;21189;-52
2021/01/29 09:00:31;;;;;;;0.00;0.00;;;;;;;-1.88;87.25;98980.71;1752143;81;21589;-53
2021/01/29 09:03:13;;;;;;;0.40;0.40;;;;;;;-1.86;87.73;98975.10;1753828;81;21125;-53
2021/01/29 09:05:42;;;;;;;0.25;0.25;;;;;;;-1.84;87.03;98976.50;1705746;81;21209;-53
2021/01/29 09:08:15;;;;;;;0.00;0.00;;;;;;;-1.86;87.23;98962.52;1728147;81;21171;-52
2021/01/29 09:11:02;;;;;;;0.10;0.10;;;;;;;-1.89;87.29;98962.19;1730084;81;21111;-52
2021/01/29 09:13:30;;;;;;;0.35;0.35;;;;;;;-1.91;87.49;98963.75;1746410;81;21185;-52
2021/01/29 09:16:03;;;;;;;0.10;0.10;;;;;;;-1.95;87.88;98958.06;1727770;81;21115;-52
2021/01/29 09:18:48;;;;;;;0.47;0.47;;;;;;;-1.95;88.29;98958.59;1750837;81;21146;-52
2021/01/29 09:21:26;;;;;;;0.10;0.10;;;;;;;-1.95;88.01;98960.74;1750742;81;21126;-52
2021/01/29 09:24:11;;;;;;;0.17;0.17;;;;;;;-1.98;88.14;98952.34;1751966;81;21122;-53
2021/01/29 09:27:08;;;;;;;0.10;0.10;;;;;;;-2.01;88.16;98946.12;1720786;83;21174;-52
2021/01/29 09:29:39;;;;;;;0.15;0.15;;;;;;;-2.07;88.24;98947.89;1720871;83;21490;-52
2021/01/29 09:32:11;;;;;;;0.10;0.10;;;;;;;-2.12;88.53;98944.29;1727681;81;21118;-52
2021/01/29 09:34:47;;;;;;;0.60;0.60;;;;;;;-2.17;88.89;98941.78;1730534;81;21102;-52
2021/01/29 09:37:19;;;;;;;0.10;0.10;;;;;;;-2.19;89.44;98945.20;1753473;81;21151;-52
2021/01/29 09:40:05;;;;;;;0.20;0.20;;;;;;;-2.18;89.63;98936.65;1747669;81;21139;-52
2021/01/29 09:42:48;;;;;;;0.10;0.10;;;;;;;-2.21;89.92;98959.34;1751244;81;21546;-52
2021/01/29 09:45:19;;;;;;;0.03;0.03;;;;;;;-2.25;90.16;98952.00;1749934;81;21143;-52
2021/01/29 09:47:48;;;;;;;0.08;0.08;;;;;;;-2.28;90.51;98953.28;1728266;81;21131;-52
2021/01/29 09:50:22;;;;;;;0.00;0.00;;;;;;;-2.27;90.90;98955.46;1750527;81;21150;-52
2021/01/29 09:53:21;;;;;;;0.17;0.17;;;;;;;-2.24;91.20;98955.80;1750726;81;21691;-52
2021/01/29 09:56:01;;;;;;;0.65;0.30;;;;;;;-2.22;91.26;98945.68;1753271;81;21619;-52
2021/01/29 09:58:59;;;;;;;0.30;0.30;;;;;;;-2.22;91.30;98938.98;1753399;81;21541;-52
2021/01/29 10:01:26;;;;;;;0.10;0.10;;;;;;;-2.19;91.45;98939.85;1752537;81;21106;-52
2021/01/29 10:04:29;;;;;;;0.10;0.10;;;;;;;-2.16;91.50;98938.05;1752434;81;21170;-52
2021/01/29 10:07:06;;;;;;;0.10;0.10;;;;;;;-2.08;91.64;98933.39;1846450;76;29102;-50
2021/01/29 10:09:36;;;;;;;0.00;0.00;;;;;;;-2.13;91.70;98930.59;1785245;78;21122;-50
2021/01/29 10:12:19;;;;;;;0.33;0.33;;;;;;;-2.18;91.50;98932.13;1790389;78;21141;-50
2021/01/29 10:15:21;;;;;;;0.42;0.42;;;;;;;-2.24;91.67;98917.00;1786689;78;21118;-50
2021/01/29 10:18:06;;;;;;;0.10;0.10;;;;;;;-2.28;91.94;98919.83;1786580;78;21138;-52
2021/01/29 10:20:35;;;;;;;0.00;0.00;;;;;;;-2.31;92.06;98907.46;1787881;78;21449;-53
2021/01/29 10:23:26;;;;;;;0.20;0.20;;;;;;;-2.34;92.23;98912.75;1798829;78;21083;-53
2021/01/29 10:26:25;;;;;;;1.95;0.33;;;;;;;-2.36;92.41;98908.16;1815714;78;21122;-53
2021/01/29 10:29:12;;;;;;;0.10;0.10;;;;;;;-2.39;92.66;98901.94;1795348;78;21141;-50
2021/01/29 10:32:04;;;;;;;0.25;0.25;;;;;;;-2.41;92.94;98904.02;1785801;80;21095;-50
2021/01/29 10:34:51;;;;;;;0.00;0.00;;;;;;;-2.43;93.03;98902.10;1785933;80;21153;-50
2021/01/29 10:37:30;;;;;;;1.07;0.42;;;;;;;-2.47;93.27;98895.08;1796649;78;21438;-50
2021/01/29 10:40:08;;;;;;;0.20;0.15;;;;;;;-2.48;93.58;98895.30;1817903;78;21130;-50
2021/01/29 10:42:55;;;;;;;0.00;0.00;;;;;;;-2.49;93.75;98908.39;1806610;78;21576;-50
2021/01/29 10:45:49;;;;;;;0.53;0.50;;;;;;;-2.48;94.03;98896.64;1787785;78;21118;-50
2021/01/29 10:48:38;;;;;;;0.00;0.00;;;;;;;-2.46;94.00;98897.22;1817540;78;21111;-50
2021/01/29 10:51:36;;;;;;;0.82;0.82;;;;;;;-2.46;94.26;98891.88;1772652;80;21110;-50
2021/01/29 10:54:07;;;;;;;0.45;0.45;;;;;;;-2.47;94.32;98898.28;1734591;78;21110;-52
2021/01/29 10:56:56;;;;;;;0.03;0.03;;;;;;;-2.47;94.42;98897.75;1786611;78;21490;-52
2021/01/29 10:59:31;;;;;;;0.00;0.00;;;;;;;-2.44;94.57;98889.78;1785784;80;21090;-52
2021/01/29 11:02:09;;;;;;;0.20;0.20;;;;;;;-2.41;94.61;98892.80;1787366;78;21149;-52
2021/01/29 11:04:40;;;;;;;0.00;0.00;;;;;;;-2.39;94.65;98885.89;1804740;78;21110;-52
2021/01/29 11:07:27;;;;;;;0.20;0.20;;;;;;;-2.36;94.60;98882.73;1823124;78;21444;-52
2021/01/29 11:10:06;;;;;;;0.00;0.00;;;;;;;-2.36;94.58;98894.78;1824353;78;21141;-52
2021/01/29 11:12:38;;;;;;;0.23;0.23;;;;;;;-2.38;94.67;98890.17;1813718;78;21114;-52
2021/01/29 11:15:23;;;;;;;0.10;0.10;;;;;;;-2.35;94.84;98897.73;1787533;78;21593;-53
2021/01/29 11:18:18;;;;;;;0.45;0.45;;;;;;;-2.32;94.91;98895.14;1824084;78;21118;-52
2021/01/29 11:20:46;;;;;;;0.70;0.70;;;;;;;-2.31;94.92;98886.05;1795629;78;21165;-53
2021/01/29 11:23:37;;;;;;;0.00;0.00;;;;;;;-2.32;94.92;98883.10;1760219;78;21121;-53
2021/01/29 11:26:34;;;;;;;1.20;0.40;;;;;;;-2.34;94.91;98890.55;1791206;80;21106;-52
2021/01/29 11:29:37;;;;;;;0.20;0.20;;;;;;;-2.33;95.15;98886.27;1794582;78;21544;-52
2021/01/29 11:32:28;;;;;;;3.62;0.80;;;;;;;-2.32;95.16;98880.42;1791258;80;21145;-53
2021/01/29 11:35:13;;;;;;;0.33;0.33;;;;;;;-2.30;95.33;98883.16;1813941;78;21172;-52
2021/01/29 11:38:04;;;;;;;0.62;0.62;;;;;;;-2.30;95.34;98884.50;1735305;82;21173;-53
2021/01/29 11:40:52;;;;;;;0.37;0.33;;;;;;;-2.27;95.50;98882.68;1793362;78;21117;-53
2021/01/29 11:43:48;;;;;;;0.30;0.30;;;;;;;-2.27;95.48;98887.23;1792053;78;21109;-52
2021/01/29 11:46:26;;;;;;;1.17;0.55;;;;;;;-2.29;95.57;98875.41;1793736;78;21137;-53
2021/01/29 11:49:11;;;;;;;0.00;0.00;;;;;;;-2.31;95.59;98884.19;1816742;78;21126;-52
2021/01/29 11:51:53;;;;;;;0.10;0.10;;;;;;;-2.32;95.84;98882.57;1824061;78;21148;-52
2021/01/29 11:54:52;;;;;;;0.10;0.10;;;;;;;-2.31;95.97;98877.50;1809111;78;21110;-53
2021/01/29 11:57:36;;;;;;;0.10;0.10;;;;;;;-2.31;96.04;98876.16;1793698;78;21385;-52
2021/01/29 12:00:20;;;;;;;3.62;0.65;;;;;;;-2.31;96.11;98879.36;1793769;78;21121;-53
2021/01/29 12:03:28;;;;;;;0.10;0.10;;;;;;;-2.33;96.24;98872.90;1793818;78;21117;-52
2021/01/29 12:06:24;;;;;;;0.47;0.47;;;;;;;-2.33;96.37;98874.23;1756580;81;21486;-53
2021/01/29 12:09:18;;;;;;;0.20;0.20;;;;;;;-2.32;96.45;98879.09;1755970;81;21548;-53
2021/01/29 12:12:03;;;;;;;0.08;0.08;;;;;;;-2.35;96.62;98874.98;1763718;81;21118;-50
2021/01/29 12:14:51;;;;;;;0.10;0.10;;;;;;;-2.37;96.75;98882.46;1726576;81;21123;-50
2021/01/29 12:17:24;;;;;;;1.40;0.85;;;;;;;-2.35;96.91;98881.67;1734791;82;21152;-53
2021/01/29 12:19:52;;;;;;;0.08;0.08;;;;;;;-2.35;96.96;98880.34;1760319;80;21182;-53
2021/01/29 12:22:33;;;;;;;0.10;0.10;;;;;;;-2.34;97.05;98881.17;1704550;81;21163;-53
2021/01/29 12:25:26;;;;;;;0.13;0.13;;;;;;;-2.33;97.11;98875.58;1777072;80;21163;-52
2021/01/29 12:28:40;;;;;;;0.00;0.00;;;;;;;-2.31;97.23;98878.03;1787412;80;21127;-53
2021/01/29 12:31:26;;;;;;;0.33;0.33;;;;;;;-2.30;97.29;98879.14;1787269;78;21158;-53
2021/01/29 12:34:38;;;;;;;0.40;0.40;;;;;;;-2.29;97.41;98874.07;1742205;81;21155;-53
2021/01/29 12:37:16;;;;;;;0.10;0.10;;;;;;;-2.26;97.48;98879.48;1748822;80;21620;-53
2021/01/29 12:39:57;;;;;;;1.60;0.40;;;;;;;-2.25;97.46;98881.09;1738525;80;21546;-52
2021/01/29 12:42:50;;;;;;;0.30;0.30;;;;;;;-2.24;97.60;98874.70;1749080;81;21402;-53
2021/01/29 12:45:37;;;;;;;0.20;0.20;;;;;;;-2.22;97.67;98870.75;1784963;80;21543;-52
2021/01/29 12:48:15;;;;;;;0.00;0.00;;;;;;;-2.20;97.64;98872.67;1725939;83;21165;-52
2021/01/29 12:51:15;;;;;;;0.68;0.45;;;;;;;-2.20;97.67;98867.32;1769046;80;21094;-52
2021/01/29 12:53:51;;;;;;;0.25;0.25;;;;;;;-2.19;97.69;98872.14;1787134;80;21095;-53
2021/01/29 12:56:39;;;;;;;0.00;0.00;;;;;;;-2.18;97.69;98872.42;1740105;81;21150;-52
2021/01/29 12:59:08;;;;;;;0.65;0.65;;;;;;;-2.17;97.79;98868.18;1724607;83;21170;-52
2021/01/29 13:01:42;;;;;;;2.10;1.40;;;;;;;-2.13;97.81;98863.16;1755876;81;21169;-52
2021/01/29 13:04:32;;;;;;;1.20;1.20;;;;;;;-2.10;97.76;98863.21;1762950;81;21185;-53
2021/01/29 13:07:17;;;;;;;0.20;0.20;;;;;;;-2.10;97.74;98865.89;1764403;81;21114;-53
2021/01/29 13:10:00;;;;;;;1.02;0.50;;;;;;;-2.09;97.67;98868.88;1764057;80;21476;-52
2021/01/29 13:12:51;;;;;;;0.10;0.10;;;;;;;-2.11;97.65;98874.98;1746544;80;21157;-52